createdAt,value
2023-05-19T00:01:24.113Z,17.23
2023-05-19T00:04:12.618Z,17.21
2023-05-19T00:06:59.826Z,17.22
2023-05-19T00:09:49.992Z,17.23
2023-05-19T00:12:37.065Z,17.20
2023-05-19T00:15:23.571Z,17.14
2023-05-19T00:18:10.175Z,17.22
2023-05-19T00:20:56.909Z,17.26
2023-05-19T00:23:43.983Z,17.14
2023-05-19T00:26:30.522Z,17.09
2023-05-19T00:29:25.803Z,17.18
2023-05-19T00:32:12.157Z,17.13
2023-05-19T00:34:59.996Z,17.06
2023-05-19T00:37:46.834Z,16.95
2023-05-19T00:40:36.072Z,17.14
2023-05-19T00:43:22.185Z,17.02
2023-05-19T00:46:11.387Z,17.04
2023-05-19T00:48:57.672Z,17.13
2023-05-19T00:51:43.999Z,17.04
2023-05-19T00:54:30.368Z,17.12
2023-05-19T00:57:16.504Z,17.10
2023-05-19T01:00:04.624Z,17.10
2023-05-19T01:02:51.458Z,17.10
2023-05-19T01:05:42.518Z,16.98
2023-05-19T01:08:29.561Z,16.98
2023-05-19T01:11:16.215Z,17.02
2023-05-19T01:14:02.684Z,17.01
2023-05-19T01:17:05.626Z,16.98
2023-05-19T01:20:06.763Z,16.98
2023-05-19T01:23:15.351Z,17.09
2023-05-19T01:26:43.808Z,16.98
2023-05-19T01:29:37.026Z,16.95
2023-05-19T01:32:23.889Z,16.98
2023-05-19T01:35:10.690Z,16.99
2023-05-19T01:37:58.695Z,17.00
2023-05-19T01:40:46.329Z,16.98
2023-05-19T01:43:33.746Z,16.97
2023-05-19T01:46:20.422Z,16.93
2023-05-19T01:49:08.358Z,16.88
2023-05-19T01:51:54.506Z,16.94
2023-05-19T01:54:41.830Z,16.84
2023-05-19T01:57:46.986Z,16.88
2023-05-19T02:00:43.143Z,16.89
2023-05-19T02:03:32.550Z,16.78
2023-05-19T02:06:18.626Z,16.89
2023-05-19T02:09:35.955Z,16.87
2023-05-19T02:12:40.948Z,16.88
2023-05-19T02:15:31.252Z,16.74
2023-05-19T02:18:20.750Z,16.70
2023-05-19T02:21:16.167Z,16.87
2023-05-19T02:24:11.114Z,16.87
2023-05-19T02:26:57.703Z,16.83
2023-05-19T02:29:44.512Z,16.89
2023-05-19T02:32:31.923Z,16.82
2023-05-19T02:35:22.003Z,16.89
2023-05-19T02:38:10.651Z,16.78
2023-05-19T02:40:57.687Z,16.77
2023-05-19T02:43:46.736Z,16.86
2023-05-19T02:46:41.255Z,16.79
2023-05-19T02:49:33.709Z,16.78
2023-05-19T02:52:20.398Z,16.72
2023-05-19T02:55:07.335Z,16.61
2023-05-19T02:57:54.709Z,16.81
2023-05-19T03:00:45.621Z,16.80
2023-05-19T03:03:34.762Z,16.70
2023-05-19T03:06:24.412Z,16.75
2023-05-19T03:09:11.490Z,16.66
2023-05-19T03:12:04.053Z,16.68
2023-05-19T03:14:51.176Z,16.81
2023-05-19T03:17:45.325Z,16.84
2023-05-19T03:20:34.084Z,16.81
2023-05-19T03:23:24.472Z,16.78
2023-05-19T03:26:12.263Z,16.69
2023-05-19T03:29:00.020Z,16.79
2023-05-19T03:31:48.103Z,16.71
2023-05-19T03:34:35.726Z,16.59
2023-05-19T03:37:22.075Z,16.76
2023-05-19T03:40:09.118Z,16.72
2023-05-19T03:42:57.311Z,16.73
2023-05-19T03:45:43.758Z,16.74
2023-05-19T03:48:49.776Z,16.64
2023-05-19T03:51:48.822Z,16.63
2023-05-19T03:54:45.553Z,16.70
2023-05-19T03:57:32.312Z,16.63
2023-05-19T04:00:19.152Z,16.67
2023-05-19T04:03:05.266Z,16.71
2023-05-19T04:05:53.492Z,16.71
2023-05-19T04:08:40.306Z,16.70
2023-05-19T04:11:26.340Z,16.68
2023-05-19T04:14:12.466Z,16.66
2023-05-19T04:16:58.913Z,16.62
2023-05-19T04:19:46.970Z,16.62
2023-05-19T04:22:33.420Z,16.52
2023-05-19T04:25:20.334Z,16.64
2023-05-19T04:28:07.738Z,16.62
2023-05-19T04:30:54.934Z,16.67
2023-05-19T04:33:41.865Z,16.58
2023-05-19T04:36:28.528Z,16.56
2023-05-19T04:39:15.891Z,16.71
2023-05-19T04:42:05.228Z,16.70
2023-05-19T04:44:52.317Z,16.73
2023-05-19T04:47:42.010Z,16.67
2023-05-19T04:50:29.830Z,16.80
2023-05-19T04:53:17.044Z,16.74
2023-05-19T04:56:04.123Z,16.74
2023-05-19T04:58:54.000Z,16.81
2023-05-19T05:01:41.218Z,16.75
2023-05-19T05:04:30.272Z,16.80
2023-05-19T05:07:16.193Z,16.79
2023-05-19T05:10:02.714Z,16.76
2023-05-19T05:12:50.306Z,16.85
2023-05-19T05:15:36.848Z,16.80
2023-05-19T05:18:23.751Z,16.85
2023-05-19T05:21:10.709Z,16.80
2023-05-19T05:23:57.506Z,16.84
2023-05-19T05:26:54.762Z,16.87
2023-05-19T05:29:47.410Z,16.79
2023-05-19T05:32:35.018Z,16.88
2023-05-19T05:35:25.797Z,16.94
2023-05-19T05:38:12.707Z,16.94
2023-05-19T05:41:01.080Z,16.97
2023-05-19T05:43:47.564Z,16.88
2023-05-19T05:46:34.070Z,16.95
2023-05-19T05:49:21.203Z,16.95
2023-05-19T05:52:09.417Z,16.97
2023-05-19T05:55:02.818Z,16.94
2023-05-19T05:57:50.666Z,17.01
2023-05-19T06:00:37.985Z,17.13
2023-05-19T06:03:24.818Z,17.06
2023-05-19T06:06:14.917Z,17.16
2023-05-19T06:09:01.139Z,17.21
2023-05-19T06:11:48.311Z,17.25
2023-05-19T06:14:34.508Z,17.23
2023-05-19T06:17:34.601Z,17.23
2023-05-19T06:20:21.093Z,17.34
2023-05-19T06:23:07.488Z,17.35
2023-05-19T06:25:56.854Z,17.31
2023-05-19T06:28:43.117Z,17.27
2023-05-19T06:31:31.539Z,17.36
2023-05-19T06:34:24.281Z,17.40
2023-05-19T06:37:10.697Z,17.32
2023-05-19T06:39:57.645Z,17.47
2023-05-19T06:42:44.774Z,17.43
2023-05-19T06:45:39.528Z,17.51
2023-05-19T06:48:26.622Z,17.46
2023-05-19T06:51:13.255Z,17.56
2023-05-19T06:54:00.805Z,17.50
2023-05-19T06:56:48.684Z,17.54
2023-05-19T06:59:40.254Z,17.69
2023-05-19T11:05:45.555Z,19.76
2023-05-19T11:09:55.757Z,19.94
2023-05-19T11:21:35.813Z,19.89
2023-05-19T11:25:05.322Z,20.08
2023-05-19T12:03:12.504Z,20.69
2023-05-19T12:06:05.632Z,20.75
2023-05-19T12:20:35.636Z,21.00
2023-05-19T12:23:59.863Z,21.00
2023-05-19T12:32:02.245Z,21.03
2023-05-19T12:34:52.996Z,21.14
2023-05-19T12:37:59.523Z,21.32
2023-05-19T12:41:00.258Z,21.29
2023-05-19T12:43:47.933Z,21.40
2023-05-19T12:46:35.141Z,21.45
2023-05-19T12:49:21.780Z,21.62
2023-05-19T12:52:14.513Z,21.56
2023-05-19T12:55:06.915Z,21.64
2023-05-19T12:58:21.181Z,21.67
2023-05-19T13:01:14.445Z,21.80
2023-05-19T13:04:03.264Z,21.76
2023-05-19T13:06:51.963Z,21.82
2023-05-19T13:09:40.323Z,21.93
2023-05-19T13:12:28.036Z,22.04
2023-05-19T13:15:14.806Z,22.08
2023-05-19T13:18:13.971Z,21.99
2023-05-19T13:21:00.834Z,22.26
2023-05-19T13:24:01.544Z,22.42
2023-05-19T13:26:53.965Z,22.48
2023-05-19T13:29:41.192Z,22.47
2023-05-19T13:32:27.813Z,22.64
2023-05-19T13:35:15.382Z,22.72
2023-05-19T13:38:04.452Z,22.78
2023-05-19T13:40:58.945Z,22.82
2023-05-19T13:43:49.208Z,23.01
2023-05-19T13:47:58.047Z,23.05
2023-05-19T13:50:15.565Z,23.12
2023-05-19T13:53:08.777Z,23.06
2023-05-19T13:56:29.050Z,23.38
2023-05-19T14:02:59.731Z,23.85
2023-05-19T14:09:11.529Z,24.39
2023-05-19T14:12:41.431Z,24.67
2023-05-19T14:15:38.435Z,25.05
2023-05-19T14:18:28.399Z,25.23
2023-05-19T14:21:17.790Z,25.57
2023-05-19T14:24:04.957Z,25.87
2023-05-19T14:26:52.808Z,26.04
2023-05-19T14:29:39.613Z,26.07
2023-05-19T14:32:30.556Z,25.92
2023-05-19T14:35:17.745Z,25.91
2023-05-19T14:38:06.192Z,26.21
2023-05-19T14:40:55.629Z,26.75
2023-05-19T14:44:14.325Z,27.39
2023-05-19T14:47:02.378Z,27.90
2023-05-19T14:49:49.464Z,27.89
2023-05-19T14:52:36.591Z,28.13
2023-05-19T14:55:23.355Z,28.79
2023-05-19T14:58:27.635Z,29.44
2023-05-19T15:01:18.215Z,30.14
2023-05-19T15:04:05.059Z,30.70
2023-05-19T15:07:05.858Z,30.94
2023-05-19T15:10:02.404Z,30.42
2023-05-19T15:12:52.523Z,29.67
2023-05-19T15:15:40.035Z,29.00
2023-05-19T15:18:30.267Z,28.38
2023-05-19T15:21:19.904Z,27.89
2023-05-19T15:24:07.236Z,27.50
2023-05-19T15:32:40.309Z,26.47
2023-05-19T15:41:36.955Z,25.59
2023-05-19T16:17:28.819Z,24.10
2023-05-19T16:20:33.251Z,23.99
2023-05-19T16:23:44.249Z,24.02
2023-05-19T16:27:20.662Z,23.93
2023-05-19T20:10:56.125Z,20.83
